sensor_id;sensor_type;location;lat;lon;timestamp;pressure;altitude;pressure_sealevel;temperature;humidity
75428;BME280;64008;55.612;37.698;2022-11-09T00:01:17;99451.34;;;5.45;97.09
75428;BME280;64008;55.612;37.698;2022-11-09T00:03:43;99451.00;;;5.46;97.75
75428;BME280;64008;55.612;37.698;2022-11-09T00:06:09;99455.44;;;5.47;96.16
75428;BME280;64008;55.612;37.698;2022-11-09T00:08:39;99452.31;;;5.49;96.44
75428;BME280;64008;55.612;37.698;2022-11-09T00:11:06;99458.72;;;5.49;96.14
75428;BME280;64008;55.612;37.698;2022-11-09T00:13:39;99451.16;;;5.50;97.01
75428;BME280;64008;55.612;37.698;2022-11-09T00:16:06;99448.03;;;5.51;96.23
75428;BME280;64008;55.612;37.698;2022-11-09T00:18:35;99451.28;;;5.53;97.55
75428;BME280;64008;55.612;37.698;2022-11-09T00:21:06;99463.28;;;5.54;97.69
75428;BME280;64008;55.612;37.698;2022-11-09T00:23:31;99458.19;;;5.56;96.96
75428;BME280;64008;55.612;37.698;2022-11-09T00:26:04;99460.63;;;5.57;97.27
75428;BME280;64008;55.612;37.698;2022-11-09T00:28:30;99457.03;;;5.57;96.91
75428;BME280;64008;55.612;37.698;2022-11-09T00:31:00;99458.66;;;5.58;96.78
75428;BME280;64008;55.612;37.698;2022-11-09T00:33:26;99460.63;;;5.57;96.52
75428;BME280;64008;55.612;37.698;2022-11-09T00:35:51;99464.25;;;5.58;97.17
75428;BME280;64008;55.612;37.698;2022-11-09T00:38:17;99461.91;;;5.60;97.96
75428;BME280;64008;55.612;37.698;2022-11-09T00:40:42;99453.91;;;5.58;97.48
75428;BME280;64008;55.612;37.698;2022-11-09T00:43:08;99450.75;;;5.60;97.90
75428;BME280;64008;55.612;37.698;2022-11-09T00:45:34;99459.94;;;5.60;96.35
75428;BME280;64008;55.612;37.698;2022-11-09T00:48:00;99463.22;;;5.62;97.79
75428;BME280;64008;55.612;37.698;2022-11-09T00:50:25;99462.06;;;5.63;97.91
75428;BME280;64008;55.612;37.698;2022-11-09T00:52:50;99466.16;;;5.66;98.18
75428;BME280;64008;55.612;37.698;2022-11-09T00:55:16;99466.16;;;5.66;97.94
75428;BME280;64008;55.612;37.698;2022-11-09T00:57:41;99458.63;;;5.66;98.32
75428;BME280;64008;55.612;37.698;2022-11-09T01:00:07;99461.84;;;5.68;97.82
75428;BME280;64008;55.612;37.698;2022-11-09T01:02:33;99470.72;;;5.70;97.85
75428;BME280;64008;55.612;37.698;2022-11-09T01:04:59;99477.94;;;5.71;97.86
75428;BME280;64008;55.612;37.698;2022-11-09T01:07:24;99477.25;;;5.74;96.34
75428;BME280;64008;55.612;37.698;2022-11-09T01:09:50;99469.69;;;5.75;97.80
75428;BME280;64008;55.612;37.698;2022-11-09T01:12:15;99464.94;;;5.75;98.03
75428;BME280;64008;55.612;37.698;2022-11-09T01:14:41;99473.28;;;5.75;97.96
75428;BME280;64008;55.612;37.698;2022-11-09T01:17:06;99478.53;;;5.77;96.86
75428;BME280;64008;55.612;37.698;2022-11-09T01:19:32;99471.47;;;5.80;96.70
75428;BME280;64008;55.612;37.698;2022-11-09T01:21:57;99469.50;;;5.80;96.80
75428;BME280;64008;55.612;37.698;2022-11-09T01:24:23;99470.00;;;5.82;98.06
75428;BME280;64008;55.612;37.698;2022-11-09T01:26:48;99473.59;;;5.83;96.23
75428;BME280;64008;55.612;37.698;2022-11-09T01:29:13;99478.38;;;5.82;97.35
75428;BME280;64008;55.612;37.698;2022-11-09T01:31:39;99471.59;;;5.83;96.14
75428;BME280;64008;55.612;37.698;2022-11-09T01:34:04;99473.22;;;5.84;97.11
75428;BME280;64008;55.612;37.698;2022-11-09T01:36:30;99481.28;;;5.86;97.04
75428;BME280;64008;55.612;37.698;2022-11-09T01:38:55;99468.16;;;5.86;97.80
75428;BME280;64008;55.612;37.698;2022-11-09T01:41:24;99475.34;;;5.87;97.13
75428;BME280;64008;55.612;37.698;2022-11-09T01:44:11;99467.84;;;5.88;97.14
75428;BME280;64008;55.612;37.698;2022-11-09T01:46:52;99475.88;;;5.89;96.73
75428;BME280;64008;55.612;37.698;2022-11-09T01:52:24;99490.28;;;5.91;97.72
75428;BME280;64008;55.612;37.698;2022-11-09T01:54:54;99484.38;;;5.93;97.50
75428;BME280;64008;55.612;37.698;2022-11-09T01:57:25;99470.41;;;5.93;96.09
75428;BME280;64008;55.612;37.698;2022-11-09T02:00:03;99468.44;;;5.93;97.38
75428;BME280;64008;55.612;37.698;2022-11-09T02:02:29;99485.69;;;5.95;98.06
75428;BME280;64008;55.612;37.698;2022-11-09T02:05:01;99482.56;;;5.97;96.91
75428;BME280;64008;55.612;37.698;2022-11-09T02:07:28;99482.22;;;5.98;96.38
75428;BME280;64008;55.612;37.698;2022-11-09T02:10:04;99489.41;;;5.99;96.24
75428;BME280;64008;55.612;37.698;2022-11-09T02:12:33;99490.22;;;6.00;97.48
75428;BME280;64008;55.612;37.698;2022-11-09T02:15:01;99489.06;;;6.01;98.38
75428;BME280;64008;55.612;37.698;2022-11-09T02:17:28;99490.22;;;6.00;96.76
75428;BME280;64008;55.612;37.698;2022-11-09T02:19:56;99493.00;;;6.00;96.20
75428;BME280;64008;55.612;37.698;2022-11-09T02:22:22;99493.00;;;6.00;96.28
75428;BME280;64008;55.612;37.698;2022-11-09T02:24:48;99487.44;;;6.00;97.51
75428;BME280;64008;55.612;37.698;2022-11-09T02:27:14;99485.47;;;6.00;97.55
75428;BME280;64008;55.612;37.698;2022-11-09T02:29:41;99505.00;;;6.00;96.73
75428;BME280;64008;55.612;37.698;2022-11-09T02:32:23;99494.66;;;6.01;96.39
75428;BME280;64008;55.612;37.698;2022-11-09T02:34:50;99488.13;;;5.97;98.10
75428;BME280;64008;55.612;37.698;2022-11-09T02:37:37;99501.75;;;5.98;97.91
75428;BME280;64008;55.612;37.698;2022-11-09T02:40:06;99498.97;;;5.98;96.96
75428;BME280;64008;55.612;37.698;2022-11-09T02:42:34;99500.56;;;5.99;98.02
75428;BME280;64008;55.612;37.698;2022-11-09T02:44:59;99488.94;;;5.97;97.65
75428;BME280;64008;55.612;37.698;2022-11-09T02:47:25;99498.97;;;5.98;97.25
75428;BME280;64008;55.612;37.698;2022-11-09T02:49:51;99499.41;;;6.00;97.83
75428;BME280;64008;55.612;37.698;2022-11-09T02:52:17;99494.66;;;6.01;97.48
75428;BME280;64008;55.612;37.698;2022-11-09T02:54:43;99494.66;;;6.01;98.74
75428;BME280;64008;55.612;37.698;2022-11-09T02:57:08;99494.31;;;6.02;96.77
75428;BME280;64008;55.612;37.698;2022-11-09T02:59:34;99493.16;;;6.03;97.60
75428;BME280;64008;55.612;37.698;2022-11-09T03:02:00;99494.31;;;6.02;98.19
75428;BME280;64008;55.612;37.698;2022-11-09T03:04:25;99484.47;;;6.05;96.73
75428;BME280;64008;55.612;37.698;2022-11-09T03:06:51;99495.63;;;6.05;97.79
75428;BME280;64008;55.612;37.698;2022-11-09T03:09:16;99498.75;;;6.03;97.97
75428;BME280;64008;55.612;37.698;2022-11-09T03:11:42;99501.53;;;6.03;98.00
75428;BME280;64008;55.612;37.698;2022-11-09T03:14:08;99499.56;;;6.04;98.20
75428;BME280;64008;55.612;37.698;2022-11-09T03:16:37;99509.25;;;6.06;98.43
75428;BME280;64008;55.612;37.698;2022-11-09T03:19:03;99501.66;;;6.07;98.29
75428;BME280;64008;55.612;37.698;2022-11-09T03:21:29;99504.94;;;6.09;96.97
75428;BME280;64008;55.612;37.698;2022-11-09T03:23:54;99505.41;;;6.11;97.13
75428;BME280;64008;55.612;37.698;2022-11-09T03:26:20;99503.44;;;6.11;98.44
75428;BME280;64008;55.612;37.698;2022-11-09T03:28:46;99505.91;;;6.13;97.67
75428;BME280;64008;55.612;37.698;2022-11-09T03:31:12;99501.59;;;6.15;98.97
75428;BME280;64008;55.612;37.698;2022-11-09T03:33:38;99514.75;;;6.15;98.95
75428;BME280;64008;55.612;37.698;2022-11-09T03:36:04;99503.56;;;6.15;97.56
75428;BME280;64008;55.612;37.698;2022-11-09T03:38:29;99520.47;;;6.19;97.39
75428;BME280;64008;55.612;37.698;2022-11-09T03:40:55;99523.25;;;6.19;97.72
75428;BME280;64008;55.612;37.698;2022-11-09T03:43:20;99528.03;;;6.18;97.20
75428;BME280;64008;55.612;37.698;2022-11-09T03:45:46;99522.44;;;6.18;98.95
75428;BME280;64008;55.612;37.698;2022-11-09T03:48:12;99532.78;;;6.18;98.76
75428;BME280;64008;55.612;37.698;2022-11-09T03:50:37;99529.66;;;6.19;97.92
75428;BME280;64008;55.612;37.698;2022-11-09T03:53:07;99535.72;;;6.21;98.35
75428;BME280;64008;55.612;37.698;2022-11-09T03:55:37;99525.03;;;6.23;97.95
75428;BME280;64008;55.612;37.698;2022-11-09T03:58:03;99534.56;;;6.22;98.12
75428;BME280;64008;55.612;37.698;2022-11-09T04:00:30;99536.06;;;6.20;97.43
75428;BME280;64008;55.612;37.698;2022-11-09T04:02:55;99536.56;;;6.22;97.17
75428;BME280;64008;55.612;37.698;2022-11-09T04:05:22;99532.25;;;6.24;97.86
75428;BME280;64008;55.612;37.698;2022-11-09T04:07:49;99542.25;;;6.25;97.66
75428;BME280;64008;55.612;37.698;2022-11-09T04:10:16;99537.16;;;6.27;98.65
75428;BME280;64008;55.612;37.698;2022-11-09T04:12:41;99533.53;;;6.27;97.81
75428;BME280;64008;55.612;37.698;2022-11-09T04:15:07;99530.41;;;6.28;98.40
75428;BME280;64008;55.612;37.698;2022-11-09T04:17:33;99535.31;;;6.31;97.28
75428;BME280;64008;55.612;37.698;2022-11-09T04:19:59;99535.78;;;6.33;97.47
75428;BME280;64008;55.612;37.698;2022-11-09T04:22:24;99538.25;;;6.35;98.38
75428;BME280;64008;55.612;37.698;2022-11-09T04:24:49;99545.13;;;6.37;98.44
75428;BME280;64008;55.612;37.698;2022-11-09T04:27:15;99540.00;;;6.39;96.84
75428;BME280;64008;55.612;37.698;2022-11-09T04:29:40;99547.22;;;6.40;96.79
75428;BME280;64008;55.612;37.698;2022-11-09T04:32:06;99548.88;;;6.41;96.98
75428;BME280;64008;55.612;37.698;2022-11-09T04:34:31;99546.06;;;6.41;97.90
75428;BME280;64008;55.612;37.698;2022-11-09T04:36:57;99543.75;;;6.43;97.00
75428;BME280;64008;55.612;37.698;2022-11-09T04:39:22;99548.19;;;6.44;98.38
75428;BME280;64008;55.612;37.698;2022-11-09T04:41:47;99544.69;;;6.47;96.74
75428;BME280;64008;55.612;37.698;2022-11-09T04:44:13;99539.59;;;6.49;97.86
75428;BME280;64008;55.612;37.698;2022-11-09T04:46:38;99542.38;;;6.49;97.59
75428;BME280;64008;55.612;37.698;2022-11-09T04:49:04;99551.25;;;6.51;96.70
75428;BME280;64008;55.612;37.698;2022-11-09T04:51:29;99543.34;;;6.53;97.42
75428;BME280;64008;55.612;37.698;2022-11-09T04:53:55;99547.75;;;6.54;96.55
75428;BME280;64008;55.612;37.698;2022-11-09T04:56:20;99553.00;;;6.56;96.87
75428;BME280;64008;55.612;37.698;2022-11-09T04:58:46;99551.03;;;6.57;98.43
75428;BME280;64008;55.612;37.698;2022-11-09T05:01:13;99543.13;;;6.59;97.23
75428;BME280;64008;55.612;37.698;2022-11-09T05:03:39;99551.28;;;6.64;96.89
75428;BME280;64008;55.612;37.698;2022-11-09T05:06:05;99550.97;;;6.65;97.23
75428;BME280;64008;55.612;37.698;2022-11-09T05:08:49;99553.09;;;6.68;97.38
75428;BME280;64008;55.612;37.698;2022-11-09T05:11:15;99549.59;;;6.71;97.03
75428;BME280;64008;55.612;37.698;2022-11-09T05:13:40;99566.34;;;6.71;97.35
75428;BME280;64008;55.612;37.698;2022-11-09T05:16:06;99557.16;;;6.71;97.52
75428;BME280;64008;55.612;37.698;2022-11-09T05:18:32;99556.97;;;6.76;97.95
75428;BME280;64008;55.612;37.698;2022-11-09T05:20:58;99561.06;;;6.78;96.27
75428;BME280;64008;55.612;37.698;2022-11-09T05:23:24;99561.84;;;6.79;97.31
75428;BME280;64008;55.612;37.698;2022-11-09T05:26:08;99572.34;;;6.82;95.96
75428;BME280;64008;55.612;37.698;2022-11-09T05:28:33;99577.25;;;6.85;96.80
75428;BME280;64008;55.612;37.698;2022-11-09T05:30:59;99572.81;;;6.84;95.83
75428;BME280;64008;55.612;37.698;2022-11-09T05:33:24;99574.81;;;6.83;95.98
75428;BME280;64008;55.612;37.698;2022-11-09T05:35:50;99575.63;;;6.84;95.14
75428;BME280;64008;55.612;37.698;2022-11-09T05:38:17;99591.22;;;6.85;95.72
75428;BME280;64008;55.612;37.698;2022-11-09T05:40:43;99579.34;;;6.88;94.60
75428;BME280;64008;55.612;37.698;2022-11-09T05:43:08;99583.78;;;6.89;94.49
75428;BME280;64008;55.612;37.698;2022-11-09T05:45:34;99581.13;;;6.93;96.28
75428;BME280;64008;55.612;37.698;2022-11-09T05:48:02;99558.06;;;6.96;95.65
75428;BME280;64008;55.612;37.698;2022-11-09T05:50:27;99570.94;;;7.09;96.00
75428;BME280;64008;55.612;37.698;2022-11-09T05:52:53;99564.44;;;7.17;94.50
75428;BME280;64008;55.612;37.698;2022-11-09T05:55:19;99563.16;;;7.26;96.09
75428;BME280;64008;55.612;37.698;2022-11-09T05:57:45;99566.00;;;7.39;94.43
75428;BME280;64008;55.612;37.698;2022-11-09T06:00:11;99567.97;;;7.50;94.33
75428;BME280;64008;55.612;37.698;2022-11-09T06:02:36;99569.84;;;7.58;94.50
75428;BME280;64008;55.612;37.698;2022-11-09T06:05:02;99569.28;;;7.53;93.43
75428;BME280;64008;55.612;37.698;2022-11-09T06:07:28;99575.91;;;7.48;94.18
75428;BME280;64008;55.612;37.698;2022-11-09T06:09:53;99565.19;;;7.50;94.30
75428;BME280;64008;55.612;37.698;2022-11-09T06:12:18;99574.66;;;7.58;94.07
75428;BME280;64008;55.612;37.698;2022-11-09T06:14:44;99575.44;;;7.58;94.05
75428;BME280;64008;55.612;37.698;2022-11-09T06:17:09;99580.94;;;7.55;93.16
75428;BME280;64008;55.612;37.698;2022-11-09T06:19:35;99572.41;;;7.51;93.08
75428;BME280;64008;55.612;37.698;2022-11-09T06:22:00;99580.59;;;7.56;93.23
75428;BME280;64008;55.612;37.698;2022-11-09T06:24:26;99581.75;;;7.55;94.06
75428;BME280;64008;55.612;37.698;2022-11-09T06:26:51;99589.44;;;7.58;92.94
75428;BME280;64008;55.612;37.698;2022-11-09T06:29:17;99590.72;;;7.61;93.93
75428;BME280;64008;55.612;37.698;2022-11-09T06:31:43;99589.91;;;7.60;93.94
75428;BME280;64008;55.612;37.698;2022-11-09T06:34:10;99584.44;;;7.64;94.03
75428;BME280;64008;55.612;37.698;2022-11-09T06:36:36;99596.22;;;7.57;93.94
75428;BME280;64008;55.612;37.698;2022-11-09T06:39:01;99593.75;;;7.56;94.05
75428;BME280;64008;55.612;37.698;2022-11-09T06:41:27;99591.78;;;7.56;92.57
75428;BME280;64008;55.612;37.698;2022-11-09T06:43:52;99592.59;;;7.57;93.67
75428;BME280;64008;55.612;37.698;2022-11-09T06:46:17;99596.91;;;7.54;94.54
75428;BME280;64008;55.612;37.698;2022-11-09T06:48:44;99595.97;;;7.62;93.64
75428;BME280;64008;55.612;37.698;2022-11-09T06:51:10;99603.31;;;7.67;93.91
75428;BME280;64008;55.612;37.698;2022-11-09T06:53:36;99605.19;;;7.63;93.48
75428;BME280;64008;55.612;37.698;2022-11-09T06:56:04;99602.88;;;7.65;93.46
75428;BME280;64008;55.612;37.698;2022-11-09T06:58:30;99609.41;;;7.69;94.30
75428;BME280;64008;55.612;37.698;2022-11-09T07:00:56;99604.28;;;7.71;94.33
75428;BME280;64008;55.612;37.698;2022-11-09T07:03:22;99604.75;;;7.73;94.16
75428;BME280;64008;55.612;37.698;2022-11-09T07:05:49;99611.28;;;7.77;94.20
75428;BME280;64008;55.612;37.698;2022-11-09T07:08:15;99616.06;;;7.77;94.41
75428;BME280;64008;55.612;37.698;2022-11-09T07:10:42;99614.06;;;7.77;94.49
75428;BME280;64008;55.612;37.698;2022-11-09T07:13:08;99613.97;;;7.86;93.35
75428;BME280;64008;55.612;37.698;2022-11-09T07:15:35;99628.00;;;7.98;93.68
75428;BME280;64008;55.612;37.698;2022-11-09T07:18:03;99619.44;;;8.06;94.16
75428;BME280;64008;55.612;37.698;2022-11-09T07:20:30;99618.63;;;8.18;93.31
75428;BME280;64008;55.612;37.698;2022-11-09T07:22:55;99616.66;;;8.19;93.61
75428;BME280;64008;55.612;37.698;2022-11-09T07:25:21;99625.50;;;8.08;93.07
75428;BME280;64008;55.612;37.698;2022-11-09T07:27:47;99621.91;;;8.08;92.90
75428;BME280;64008;55.612;37.698;2022-11-09T07:30:13;99625.66;;;8.12;93.15
75428;BME280;64008;55.612;37.698;2022-11-09T07:32:39;99626.69;;;8.07;93.34
75428;BME280;64008;55.612;37.698;2022-11-09T07:35:05;99630.09;;;8.13;92.87
75428;BME280;64008;55.612;37.698;2022-11-09T07:37:32;99638.50;;;8.13;93.59
75428;BME280;64008;55.612;37.698;2022-11-09T07:39:57;99637.06;;;8.07;92.55
75428;BME280;64008;55.612;37.698;2022-11-09T07:42:23;99649.22;;;8.11;92.86
75428;BME280;64008;55.612;37.698;2022-11-09T07:44:49;99639.03;;;8.06;92.78
75428;BME280;64008;55.612;37.698;2022-11-09T07:47:16;99636.25;;;8.06;93.28
75428;BME280;64008;55.612;37.698;2022-11-09T07:49:41;99650.63;;;8.05;93.43
75428;BME280;64008;55.612;37.698;2022-11-09T07:52:07;99654.34;;;7.97;92.65
75428;BME280;64008;55.612;37.698;2022-11-09T07:54:32;99651.19;;;7.86;93.70
75428;BME280;64008;55.612;37.698;2022-11-09T07:56:58;99649.78;;;7.80;93.76
75428;BME280;64008;55.612;37.698;2022-11-09T07:59:23;99657.25;;;7.88;93.46
75428;BME280;64008;55.612;37.698;2022-11-09T08:01:49;99665.66;;;7.88;94.09
75428;BME280;64008;55.612;37.698;2022-11-09T08:04:14;99673.22;;;7.88;93.19
75428;BME280;64008;55.612;37.698;2022-11-09T08:06:40;99657.59;;;7.87;93.97
75428;BME280;64008;55.612;37.698;2022-11-09T08:09:05;99656.53;;;7.91;94.60
75428;BME280;64008;55.612;37.698;2022-11-09T08:11:31;99659.22;;;8.00;94.16
75428;BME280;64008;55.612;37.698;2022-11-09T08:13:56;99655.41;;;8.04;94.27
75428;BME280;64008;55.612;37.698;2022-11-09T08:16:22;99641.84;;;8.06;93.57
75428;BME280;64008;55.612;37.698;2022-11-09T08:18:49;99647.91;;;8.08;93.14
75428;BME280;64008;55.612;37.698;2022-11-09T08:21:15;99657.72;;;8.15;94.57
75428;BME280;64008;55.612;37.698;2022-11-09T08:23:41;99656.44;;;8.12;93.67
75428;BME280;64008;55.612;37.698;2022-11-09T08:26:07;99658.44;;;8.12;93.52
75428;BME280;64008;55.612;37.698;2022-11-09T08:28:33;99655.84;;;8.06;94.88
75428;BME280;64008;55.612;37.698;2022-11-09T08:31:02;99655.28;;;8.01;94.15
75428;BME280;64008;55.612;37.698;2022-11-09T08:33:32;99656.31;;;7.96;94.79
75428;BME280;64008;55.612;37.698;2022-11-09T08:35:58;99662.63;;;8.05;94.62
75428;BME280;64008;55.612;37.698;2022-11-09T08:38:23;99650.03;;;8.12;95.18
75428;BME280;64008;55.612;37.698;2022-11-09T08:40:49;99649.09;;;8.20;94.21
75428;BME280;64008;55.612;37.698;2022-11-09T08:43:14;99657.25;;;8.25;94.52
75428;BME280;64008;55.612;37.698;2022-11-09T08:45:40;99659.16;;;8.21;95.43
75428;BME280;64008;55.612;37.698;2022-11-09T08:48:07;99654.47;;;8.13;94.65
75428;BME280;64008;55.612;37.698;2022-11-09T08:50:34;99650.84;;;8.12;94.79
75428;BME280;64008;55.612;37.698;2022-11-09T08:53:01;99655.63;;;8.12;95.68
75428;BME280;64008;55.612;37.698;2022-11-09T08:55:27;99648.41;;;8.11;95.52
75428;BME280;64008;55.612;37.698;2022-11-09T08:57:55;99650.03;;;8.12;95.70
75428;BME280;64008;55.612;37.698;2022-11-09T09:00:21;99650.59;;;8.17;96.07
75428;BME280;64008;55.612;37.698;2022-11-09T09:02:47;99642.78;;;8.23;95.70
75428;BME280;64008;55.612;37.698;2022-11-09T09:05:13;99646.16;;;8.16;95.42
75428;BME280;64008;55.612;37.698;2022-11-09T09:07:39;99638.84;;;8.12;94.74
75428;BME280;64008;55.612;37.698;2022-11-09T09:10:05;99641.06;;;8.06;94.47
75428;BME280;64008;55.612;37.698;2022-11-09T09:12:30;99640.09;;;8.02;95.56
75428;BME280;64008;55.612;37.698;2022-11-09T09:14:56;99643.16;;;7.97;95.59
75428;BME280;64008;55.612;37.698;2022-11-09T09:17:22;99642.31;;;7.96;95.83
75428;BME280;64008;55.612;37.698;2022-11-09T09:19:47;99635.56;;;7.97;94.83
75428;BME280;64008;55.612;37.698;2022-11-09T09:22:13;99639.63;;;8.00;94.88
75428;BME280;64008;55.612;37.698;2022-11-09T09:24:38;99647.81;;;8.05;96.20
75428;BME280;64008;55.612;37.698;2022-11-09T09:27:04;99649.31;;;8.15;95.77
75428;BME280;64008;55.612;37.698;2022-11-09T09:29:29;99631.69;;;8.14;95.14
75428;BME280;64008;55.612;37.698;2022-11-09T09:31:55;99642.56;;;8.16;95.73
75428;BME280;64008;55.612;37.698;2022-11-09T09:34:20;99650.03;;;8.12;95.35
75428;BME280;64008;55.612;37.698;2022-11-09T09:36:45;99644.09;;;8.13;95.56
75428;BME280;64008;55.612;37.698;2022-11-09T09:39:11;99652.00;;;8.11;96.09
75428;BME280;64008;55.612;37.698;2022-11-09T09:41:41;99648.50;;;8.14;95.19
75428;BME280;64008;55.612;37.698;2022-11-09T09:47:03;99650.75;;;8.21;95.40
75428;BME280;64008;55.612;37.698;2022-11-09T09:49:34;99643.50;;;8.20;95.37
75428;BME280;64008;55.612;37.698;2022-11-09T09:52:57;99643.59;;;8.23;95.15
75428;BME280;64008;55.612;37.698;2022-11-09T09:55:06;99649.34;;;8.27;95.12
75428;BME280;64008;55.612;37.698;2022-11-09T09:57:35;99653.91;;;8.31;95.30
75428;BME280;64008;55.612;37.698;2022-11-09T10:00:02;99651.44;;;8.30;95.60
75428;BME280;64008;55.612;37.698;2022-11-09T10:02:34;99645.97;;;8.33;95.27
75428;BME280;64008;55.612;37.698;2022-11-09T10:05:01;99640.72;;;8.32;95.29
75428;BME280;64008;55.612;37.698;2022-11-09T10:10:35;99651.66;;;8.49;95.02
75428;BME280;64008;55.612;37.698;2022-11-09T10:29:34;99649.94;;;8.32;95.03
75428;BME280;64008;55.612;37.698;2022-11-09T10:32:04;99637.91;;;8.32;95.13
75428;BME280;64008;55.612;37.698;2022-11-09T10:37:42;99639.28;;;8.26;95.79
75428;BME280;64008;55.612;37.698;2022-11-09T10:42:36;99629.84;;;8.18;95.33
75428;BME280;64008;55.612;37.698;2022-11-09T10:45:18;99632.16;;;8.16;96.03
75428;BME280;64008;55.612;37.698;2022-11-09T10:47:47;99638.59;;;8.17;95.81
75428;BME280;64008;55.612;37.698;2022-11-09T10:52:48;99638.94;;;8.15;95.49
75428;BME280;64008;55.612;37.698;2022-11-09T10:55:23;99644.53;;;8.15;95.42
75428;BME280;64008;55.612;37.698;2022-11-09T10:58:02;99634.28;;;8.19;95.63
75428;BME280;64008;55.612;37.698;2022-11-09T11:00:54;99634.63;;;8.18;95.96
75428;BME280;64008;55.612;37.698;2022-11-09T11:03:22;99642.56;;;8.16;95.95
75428;BME280;64008;55.612;37.698;2022-11-09T11:05:56;99643.03;;;8.18;95.27
75428;BME280;64008;55.612;37.698;2022-11-09T11:08:35;99646.66;;;8.18;95.66
75428;BME280;64008;55.612;37.698;2022-11-09T11:11:28;99648.63;;;8.18;95.33
75428;BME280;64008;55.612;37.698;2022-11-09T11:14:16;99653.75;;;8.16;96.00
75428;BME280;64008;55.612;37.698;2022-11-09T11:16:42;99649.31;;;8.15;96.00
75428;BME280;64008;55.612;37.698;2022-11-09T11:22:18;99646.28;;;8.20;95.50
75428;BME280;64008;55.612;37.698;2022-11-09T11:25:14;99645.59;;;8.23;95.85
75428;BME280;64008;55.612;37.698;2022-11-09T11:28:02;99640.94;;;8.27;95.52
75428;BME280;64008;55.612;37.698;2022-11-09T11:30:33;99632.53;;;8.27;96.11
75428;BME280;64008;55.612;37.698;2022-11-09T11:33:10;99648.63;;;8.30;95.61
75428;BME280;64008;55.612;37.698;2022-11-09T11:44:45;99636.72;;;8.21;96.33
75428;BME280;64008;55.612;37.698;2022-11-09T11:47:14;99653.53;;;8.21;95.65
75428;BME280;64008;55.612;37.698;2022-11-09T12:14:35;99639.75;;;8.16;96.89
75428;BME280;64008;55.612;37.698;2022-11-09T12:17:26;99642.56;;;8.16;97.28
75428;BME280;64008;55.612;37.698;2022-11-09T12:20:24;99643.25;;;8.25;97.81
75428;BME280;64008;55.612;37.698;2022-11-09T12:33:57;99654.69;;;8.20;96.54
75428;BME280;64008;55.612;37.698;2022-11-09T12:39:11;99650.75;;;8.21;97.53
75428;BME280;64008;55.612;37.698;2022-11-09T12:41:42;99646.16;;;8.16;96.42
75428;BME280;64008;55.612;37.698;2022-11-09T12:44:19;99655.75;;;8.15;96.80
75428;BME280;64008;55.612;37.698;2022-11-09T12:46:56;99637.41;;;8.18;97.02
75428;BME280;64008;55.612;37.698;2022-11-09T12:51:55;99644.53;;;8.15;97.12
75428;BME280;64008;55.612;37.698;2022-11-09T12:54:21;99657.38;;;8.16;97.17
75428;BME280;64008;55.612;37.698;2022-11-09T12:57:14;99659.34;;;8.16;97.28
75428;BME280;64008;55.612;37.698;2022-11-09T12:59:47;99656.91;;;8.14;97.33
75428;BME280;64008;55.612;37.698;2022-11-09T13:02:38;99654.91;;;8.15;96.57
75428;BME280;64008;55.612;37.698;2022-11-09T13:05:27;99648.88;;;8.13;96.02
75428;BME280;64008;55.612;37.698;2022-11-09T13:07:54;99654.56;;;8.16;96.37
75428;BME280;64008;55.612;37.698;2022-11-09T13:10:34;99654.22;;;8.18;97.28
75428;BME280;64008;55.612;37.698;2022-11-09T13:13:25;99647.47;;;8.19;96.50
75428;BME280;64008;55.612;37.698;2022-11-09T13:23:49;99670.22;;;8.17;96.22
75428;BME280;64008;55.612;37.698;2022-11-09T13:47:59;99689.00;;;8.17;97.05
75428;BME280;64008;55.612;37.698;2022-11-09T13:50:26;99672.19;;;8.17;96.64
75428;BME280;64008;55.612;37.698;2022-11-09T13:52:55;99675.00;;;8.17;95.88
75428;BME280;64008;55.612;37.698;2022-11-09T13:55:31;99683.53;;;8.20;96.22
75428;BME280;64008;55.612;37.698;2022-11-09T13:58:07;99684.69;;;8.19;96.72
75428;BME280;64008;55.612;37.698;2022-11-09T14:00:35;99690.78;;;8.21;95.93
75428;BME280;64008;55.612;37.698;2022-11-09T14:03:21;99693.91;;;8.20;96.52
75428;BME280;64008;55.612;37.698;2022-11-09T14:05:53;99701.03;;;8.17;96.54
75428;BME280;64008;55.612;37.698;2022-11-09T14:08:25;99700.69;;;8.19;96.38
75428;BME280;64008;55.612;37.698;2022-11-09T14:14:03;99696.72;;;8.20;96.54
75428;BME280;64008;55.612;37.698;2022-11-09T14:19:30;99701.97;;;8.21;96.75
75428;BME280;64008;55.612;37.698;2022-11-09T14:21:59;99692.75;;;8.21;96.47
75428;BME280;64008;55.612;37.698;2022-11-09T14:24:28;99688.88;;;8.25;96.57
75428;BME280;64008;55.612;37.698;2022-11-09T14:29:36;99689.03;;;8.29;96.44
75428;BME280;64008;55.612;37.698;2022-11-09T14:32:35;99680.16;;;8.27;96.24
75428;BME280;64008;55.612;37.698;2022-11-09T14:37:51;99690.78;;;8.33;95.79
75428;BME280;64008;55.612;37.698;2022-11-09T14:43:15;99680.06;;;8.35;95.91
75428;BME280;64008;55.612;37.698;2022-11-09T14:45:59;99682.53;;;8.37;96.02
75428;BME280;64008;55.612;37.698;2022-11-09T14:48:25;99682.53;;;8.37;96.25
75428;BME280;64008;55.612;37.698;2022-11-09T14:50:54;99683.34;;;8.37;95.66
75428;BME280;64008;55.612;37.698;2022-11-09T14:53:28;99688.56;;;8.39;95.82
75428;BME280;64008;55.612;37.698;2022-11-09T14:55:58;99687.88;;;8.42;95.93
75428;BME280;64008;55.612;37.698;2022-11-09T14:58:25;99697.91;;;8.43;95.57
75428;BME280;64008;55.612;37.698;2022-11-09T15:03:42;99690.00;;;8.45;95.07
75428;BME280;64008;55.612;37.698;2022-11-09T15:06:12;99693.94;;;8.44;95.79
75428;BME280;64008;55.612;37.698;2022-11-09T15:08:53;99679.59;;;8.46;95.88
75428;BME280;64008;55.612;37.698;2022-11-09T15:11:20;99678.06;;;8.48;95.22
75428;BME280;64008;55.612;37.698;2022-11-09T15:13:55;99676.88;;;8.49;95.95
75428;BME280;64008;55.612;37.698;2022-11-09T15:16:23;99678.88;;;8.49;95.37
75428;BME280;64008;55.612;37.698;2022-11-09T15:18:49;99683.19;;;8.46;95.53
75428;BME280;64008;55.612;37.698;2022-11-09T15:21:18;99698.41;;;8.45;95.68